createdAt,value
2023-04-16T00:00:09.468Z,2.85
2023-04-16T00:01:12.391Z,3.17
2023-04-16T00:02:14.990Z,3.25
2023-04-16T00:03:17.137Z,3.85
2023-04-16T00:04:19.237Z,4.20
2023-04-16T00:05:21.115Z,4.35
2023-04-16T00:06:23.409Z,3.78
2023-04-16T00:07:25.237Z,3.33
2023-04-16T00:08:26.995Z,3.22
2023-04-16T00:09:28.861Z,3.50
2023-04-16T00:10:30.668Z,3.55
2023-04-16T00:11:32.378Z,3.40
2023-04-16T00:12:34.141Z,2.97
2023-04-16T00:13:35.865Z,2.90
2023-04-16T00:14:37.710Z,3.05
2023-04-16T00:15:39.431Z,3.03
2023-04-16T00:16:41.174Z,3.00
2023-04-16T00:17:42.943Z,2.80
2023-04-16T00:18:44.708Z,2.58
2023-04-16T00:19:46.699Z,2.75
2023-04-16T00:20:48.898Z,2.63
2023-04-16T00:21:51.114Z,3.00
2023-04-16T00:22:52.855Z,3.20
2023-04-16T00:23:54.682Z,3.10
2023-04-16T00:24:56.566Z,2.78
2023-04-16T00:26:00.211Z,2.85
2023-04-16T00:27:02.206Z,2.75
2023-04-16T00:28:05.657Z,2.97
2023-04-16T00:29:07.504Z,2.88
2023-04-16T00:30:09.815Z,2.85
2023-04-16T00:31:11.595Z,2.72
2023-04-16T00:32:13.466Z,2.55
2023-04-16T00:33:15.942Z,2.60
2023-04-16T00:34:17.681Z,2.55
2023-04-16T00:35:19.573Z,2.40
2023-04-16T00:36:21.399Z,2.63
2023-04-16T00:37:24.926Z,2.50
2023-04-16T00:38:30.536Z,2.50
2023-04-16T00:39:32.228Z,2.50
2023-04-16T00:40:33.995Z,2.88
2023-04-16T00:41:35.804Z,2.90
2023-04-16T00:42:38.264Z,2.70
2023-04-16T00:43:40.023Z,2.90
2023-04-16T00:44:41.721Z,2.53
2023-04-16T00:45:43.521Z,2.28
2023-04-16T00:46:46.167Z,2.60
2023-04-16T00:47:47.997Z,2.70
2023-04-16T00:48:51.748Z,2.78
2023-04-16T00:49:53.571Z,2.63
2023-04-16T00:50:56.084Z,2.90
2023-04-16T00:51:57.917Z,2.83
2023-04-16T00:52:59.700Z,3.05
2023-04-16T00:54:02.384Z,3.30
2023-04-16T00:55:06.756Z,3.13
2023-04-16T00:56:09.935Z,2.88
2023-04-16T00:57:14.837Z,2.72
2023-04-16T00:58:17.174Z,2.78
2023-04-16T00:59:18.897Z,2.85
2023-04-16T01:00:21.473Z,3.17
2023-04-16T01:01:23.259Z,2.53
2023-04-16T01:02:25.660Z,2.95
2023-04-16T01:03:37.573Z,2.80
2023-04-16T01:04:39.513Z,3.08
2023-04-16T01:05:41.289Z,3.42
2023-04-16T01:06:43.156Z,3.25
2023-04-16T01:07:44.916Z,3.17
2023-04-16T01:08:48.097Z,2.95
2023-04-16T01:09:49.780Z,3.50
2023-04-16T01:10:51.482Z,3.20
2023-04-16T01:11:53.199Z,3.03
2023-04-16T01:12:54.919Z,3.30
2023-04-16T01:13:56.638Z,2.63
2023-04-16T01:14:58.539Z,3.08
2023-04-16T01:16:01.586Z,2.72
2023-04-16T01:17:04.255Z,3.08
2023-04-16T01:18:19.324Z,3.33
2023-04-16T01:19:21.072Z,2.80
2023-04-16T01:20:22.872Z,2.58
2023-04-16T01:21:24.571Z,2.72
2023-04-16T01:22:27.867Z,3.10
2023-04-16T01:23:29.821Z,3.03
2023-04-16T01:24:32.225Z,2.95
2023-04-16T01:25:33.956Z,2.65
2023-04-16T01:26:35.732Z,2.70
2023-04-16T01:27:37.762Z,3.03
2023-04-16T01:28:39.498Z,2.78
2023-04-16T01:29:41.350Z,2.78
2023-04-16T01:30:43.106Z,2.55
2023-04-16T01:31:46.821Z,2.83
2023-04-16T01:32:48.816Z,3.10
2023-04-16T01:33:50.742Z,2.92
2023-04-16T01:34:52.436Z,2.70
2023-04-16T01:35:54.132Z,2.75
2023-04-16T01:36:55.905Z,2.58
2023-04-16T01:37:57.597Z,2.88
2023-04-16T01:38:59.334Z,2.42
2023-04-16T01:40:01.116Z,3.05
2023-04-16T01:41:02.880Z,2.47
2023-04-16T01:42:04.640Z,2.58
2023-04-16T01:43:06.350Z,3.03
2023-04-16T01:44:08.075Z,3.00
2023-04-16T01:45:10.116Z,3.92
2023-04-16T01:46:20.580Z,5.68
2023-04-16T01:47:22.546Z,5.25
2023-04-16T01:48:24.263Z,5.07
2023-04-16T01:49:26.054Z,4.65
2023-04-16T01:50:28.505Z,4.70
2023-04-16T01:51:30.324Z,3.97
2023-04-16T01:52:32.121Z,4.60
2023-04-16T01:53:36.538Z,3.92
2023-04-16T01:54:38.851Z,4.18
2023-04-16T01:55:40.534Z,3.80
2023-04-16T01:56:42.274Z,4.47
2023-04-16T01:57:43.979Z,3.70
2023-04-16T01:58:48.524Z,3.83
2023-04-16T01:59:50.254Z,3.60
2023-04-16T02:00:51.967Z,3.90
2023-04-16T02:01:54.210Z,4.53
2023-04-16T02:02:56.289Z,3.55
2023-04-16T02:03:58.474Z,3.10
2023-04-16T02:05:00.258Z,2.92
2023-04-16T02:06:02.096Z,3.72
2023-04-16T02:07:04.662Z,3.40
2023-04-16T02:08:06.519Z,3.53
2023-04-16T02:09:08.591Z,2.90
2023-04-16T02:10:10.503Z,5.13
2023-04-16T02:11:12.248Z,10.23
2023-04-16T02:12:14.127Z,11.75
2023-04-16T02:13:16.758Z,9.57
2023-04-16T02:14:18.632Z,6.97
2023-04-16T02:15:20.557Z,6.53
2023-04-16T02:16:22.336Z,4.40
2023-04-16T02:17:24.175Z,4.45
2023-04-16T02:18:25.965Z,3.80
2023-04-16T02:19:27.708Z,3.72
2023-04-16T02:20:29.457Z,2.90
2023-04-16T02:21:31.954Z,2.83
2023-04-16T02:22:33.746Z,2.60
2023-04-16T02:23:35.708Z,2.45
2023-04-16T02:24:37.437Z,3.08
2023-04-16T02:25:41.368Z,2.50
2023-04-16T02:26:43.175Z,2.45
2023-04-16T02:27:44.885Z,2.47
2023-04-16T02:28:46.580Z,2.75
2023-04-16T02:29:48.304Z,3.05
2023-04-16T02:30:50.034Z,2.65
2023-04-16T02:31:51.953Z,2.63
2023-04-16T02:32:53.709Z,3.53
2023-04-16T02:33:55.412Z,4.50
2023-04-16T02:34:57.284Z,4.25
2023-04-16T02:35:59.031Z,4.03
2023-04-16T02:37:00.963Z,4.10
2023-04-16T02:38:04.267Z,4.22
2023-04-16T02:39:06.057Z,3.53
2023-04-16T02:40:08.520Z,3.17
2023-04-16T02:41:10.235Z,2.90
2023-04-16T02:42:11.978Z,3.35
2023-04-16T02:43:13.703Z,3.00
2023-04-16T02:44:15.844Z,2.53
2023-04-16T02:45:17.618Z,3.00
2023-04-16T02:46:19.408Z,2.72
2023-04-16T02:47:21.205Z,2.75
2023-04-16T02:48:23.095Z,2.55
2023-04-16T02:49:24.842Z,2.92
2023-04-16T02:50:26.711Z,3.50
2023-04-16T02:51:29.235Z,3.30
2023-04-16T02:52:32.400Z,2.45
2023-04-16T02:53:34.679Z,2.67
2023-04-16T02:54:36.479Z,3.67
2023-04-16T02:55:38.141Z,3.75
2023-04-16T02:56:39.851Z,3.38
2023-04-16T02:57:42.716Z,2.90
2023-04-16T02:58:44.456Z,3.15
2023-04-16T02:59:46.183Z,2.92
2023-04-16T03:00:48.172Z,3.50
2023-04-16T03:01:50.091Z,3.25
2023-04-16T03:02:51.990Z,3.30
2023-04-16T03:03:53.831Z,3.40
2023-04-16T03:04:55.706Z,3.28
2023-04-16T03:05:57.448Z,3.38
2023-04-16T03:06:59.162Z,3.70
2023-04-16T03:08:01.157Z,3.60
2023-04-16T03:09:02.921Z,3.78
2023-04-16T03:10:05.647Z,3.63
2023-04-16T03:11:07.688Z,3.20
2023-04-16T03:12:09.360Z,3.60
2023-04-16T03:13:11.091Z,3.50
2023-04-16T03:14:12.782Z,4.13
2023-04-16T03:15:14.498Z,3.90
2023-04-16T03:16:16.488Z,4.00
2023-04-16T03:17:18.362Z,3.72
2023-04-16T03:18:20.119Z,4.07
2023-04-16T03:19:21.812Z,3.90
2023-04-16T03:20:23.999Z,4.88
2023-04-16T03:21:26.004Z,4.15
2023-04-16T03:22:27.731Z,4.43
2023-04-16T03:23:29.488Z,4.80
2023-04-16T03:24:31.289Z,4.20
2023-04-16T03:25:33.039Z,4.40
2023-04-16T03:26:34.781Z,3.88
2023-04-16T03:27:36.487Z,3.80
2023-04-16T03:28:38.192Z,3.70
2023-04-16T03:29:40.045Z,6.55
2023-04-16T03:30:41.772Z,4.22
2023-04-16T03:31:43.503Z,3.92
2023-04-16T03:32:45.300Z,3.53
2023-04-16T03:33:47.000Z,4.13
2023-04-16T03:34:48.726Z,3.70
2023-04-16T03:35:59.708Z,3.25
2023-04-16T03:37:01.659Z,3.50
2023-04-16T03:38:03.343Z,3.60
2023-04-16T03:39:05.071Z,3.75
2023-04-16T03:40:07.498Z,11.65
2023-04-16T03:41:09.194Z,6.00
2023-04-16T03:42:11.040Z,7.63
2023-04-16T03:43:12.744Z,9.75
2023-04-16T03:44:14.442Z,7.13
2023-04-16T03:45:16.355Z,6.15
2023-04-16T03:46:18.154Z,4.90
2023-04-16T03:47:23.127Z,5.20
2023-04-16T03:48:24.820Z,5.10
2023-04-16T03:49:26.564Z,4.68
2023-04-16T03:50:28.312Z,4.47
2023-04-16T03:51:30.022Z,3.90
2023-04-16T03:52:31.726Z,3.40
2023-04-16T03:53:33.442Z,3.58
2023-04-16T03:54:35.173Z,3.50
2023-04-16T03:55:36.869Z,2.97
2023-04-16T03:56:40.476Z,3.35
2023-04-16T03:57:42.238Z,3.00
2023-04-16T03:58:43.921Z,3.20
2023-04-16T03:59:45.640Z,3.38
2023-04-16T04:00:47.634Z,3.50
2023-04-16T04:01:49.491Z,3.42
2023-04-16T04:02:51.364Z,3.33
2023-04-16T04:03:53.335Z,3.35
2023-04-16T04:04:55.218Z,4.05
2023-04-16T04:05:57.098Z,2.92
2023-04-16T04:06:58.859Z,4.20
2023-04-16T04:08:00.637Z,3.20
2023-04-16T04:09:02.516Z,3.17
2023-04-16T04:10:04.517Z,2.92
2023-04-16T04:11:06.199Z,3.42
2023-04-16T04:12:08.118Z,3.40
2023-04-16T04:13:10.335Z,3.90
2023-04-16T04:14:12.225Z,3.05
2023-04-16T04:15:14.307Z,3.50
2023-04-16T04:16:16.333Z,3.17
2023-04-16T04:17:18.203Z,4.35
2023-04-16T04:18:19.914Z,3.53
2023-04-16T04:19:21.599Z,3.60
2023-04-16T04:20:23.654Z,4.00
2023-04-16T04:21:26.031Z,3.78
2023-04-16T04:22:27.735Z,3.95
2023-04-16T04:23:29.457Z,7.65
2023-04-16T04:24:31.180Z,19.40
2023-04-16T04:25:32.905Z,16.73
2023-04-16T04:26:34.675Z,14.35
2023-04-16T04:27:36.705Z,7.45
2023-04-16T04:28:38.434Z,5.05
2023-04-16T04:29:40.126Z,4.75
2023-04-16T04:30:42.158Z,3.97
2023-04-16T04:31:43.916Z,6.25
2023-04-16T04:32:45.746Z,8.50
2023-04-16T04:33:47.467Z,10.20
2023-04-16T04:34:49.215Z,7.18
2023-04-16T04:35:51.165Z,5.47
2023-04-16T04:36:52.888Z,4.70
2023-04-16T04:37:54.602Z,4.15
2023-04-16T04:38:56.448Z,4.40
2023-04-16T04:39:58.224Z,5.03
2023-04-16T04:41:00.416Z,4.90
2023-04-16T04:42:03.442Z,4.97
2023-04-16T04:43:05.228Z,4.30
2023-04-16T04:44:07.103Z,5.00
2023-04-16T04:45:09.698Z,4.28
2023-04-16T04:46:11.537Z,4.43
2023-04-16T04:47:13.999Z,5.03
2023-04-16T04:48:16.230Z,4.88
2023-04-16T04:49:17.963Z,4.32
2023-04-16T04:50:19.862Z,4.57
2023-04-16T04:51:21.593Z,4.32
2023-04-16T04:52:23.314Z,4.68
2023-04-16T04:53:25.039Z,4.50
2023-04-16T04:54:26.782Z,3.75
2023-04-16T04:55:28.496Z,4.47
2023-04-16T04:56:30.251Z,4.32
2023-04-16T04:57:31.994Z,4.63
2023-04-16T04:58:33.744Z,4.65
2023-04-16T04:59:35.458Z,3.97
2023-04-16T05:00:37.321Z,3.50
2023-04-16T05:01:39.190Z,3.88
2023-04-16T05:02:41.211Z,3.40
2023-04-16T05:03:43.076Z,3.85
2023-04-16T05:04:44.905Z,3.30
2023-04-16T05:05:46.997Z,3.42
2023-04-16T05:06:48.765Z,3.28
2023-04-16T05:07:50.696Z,3.10
2023-04-16T05:08:52.446Z,3.83
2023-04-16T05:09:54.242Z,2.83
2023-04-16T05:10:56.025Z,3.78
2023-04-16T05:11:57.847Z,3.65
2023-04-16T05:12:59.625Z,3.25
2023-04-16T05:14:01.307Z,3.00
2023-04-16T05:15:03.166Z,3.08
2023-04-16T05:16:05.202Z,2.95
2023-04-16T05:17:08.104Z,3.08
2023-04-16T05:18:10.015Z,2.60
2023-04-16T05:19:11.975Z,2.97
2023-04-16T05:20:13.904Z,2.90
2023-04-16T05:21:15.674Z,2.90
2023-04-16T05:22:19.079Z,3.88
2023-04-16T05:23:20.816Z,3.38
2023-04-16T05:24:22.777Z,3.10
2023-04-16T05:25:24.508Z,2.95
2023-04-16T05:26:26.274Z,2.78
2023-04-16T05:27:28.046Z,3.15
2023-04-16T05:28:30.819Z,2.85
2023-04-16T05:29:32.584Z,2.47
2023-04-16T05:30:34.363Z,3.13
2023-04-16T05:31:36.211Z,2.55
2023-04-16T05:32:39.739Z,3.20
2023-04-16T05:33:41.475Z,2.70
2023-04-16T05:34:43.282Z,3.03
2023-04-16T05:35:44.962Z,3.30
2023-04-16T05:36:47.039Z,3.20
2023-04-16T05:37:48.735Z,3.25
2023-04-16T05:38:50.674Z,3.20
2023-04-16T05:39:52.382Z,2.78
2023-04-16T05:40:54.174Z,2.65
2023-04-16T05:41:55.870Z,2.67
2023-04-16T05:42:57.634Z,2.75
2023-04-16T05:43:59.345Z,2.28
2023-04-16T05:45:04.338Z,2.70
2023-04-16T05:46:06.086Z,2.70
2023-04-16T05:47:09.502Z,3.13
2023-04-16T05:48:11.451Z,2.28
2023-04-16T05:49:13.192Z,2.40
2023-04-16T05:50:15.030Z,2.05
2023-04-16T05:51:16.743Z,2.55
2023-04-16T05:52:18.448Z,1.95
2023-04-16T05:53:20.247Z,2.50
2023-04-16T05:54:22.047Z,2.30
2023-04-16T05:55:23.786Z,2.13
2023-04-16T05:56:25.637Z,2.33
2023-04-16T05:57:28.851Z,2.38
2023-04-16T05:58:30.611Z,2.40
2023-04-16T05:59:32.329Z,1.85
2023-04-16T06:00:34.183Z,2.35
2023-04-16T06:01:36.083Z,2.05
2023-04-16T06:02:38.081Z,2.45
2023-04-16T06:03:39.878Z,2.50
2023-04-16T06:04:41.738Z,2.20
2023-04-16T06:05:43.572Z,1.95
2023-04-16T06:06:45.316Z,2.38
2023-04-16T06:07:47.105Z,2.22
2023-04-16T06:08:48.815Z,2.20
2023-04-16T06:09:50.525Z,2.97
2023-04-16T06:10:52.293Z,2.20
2023-04-16T06:11:54.063Z,2.15
2023-04-16T06:12:55.752Z,2.33
2023-04-16T06:13:57.446Z,2.45
2023-04-16T06:15:00.597Z,2.10
2023-04-16T06:16:02.376Z,2.72
2023-04-16T06:17:04.083Z,2.30
2023-04-16T06:18:08.682Z,2.45
2023-04-16T06:19:10.740Z,2.35
2023-04-16T06:20:13.094Z,2.60
2023-04-16T06:21:14.991Z,2.05
2023-04-16T06:22:16.803Z,2.22
2023-04-16T06:23:18.510Z,2.30
2023-04-16T06:24:20.247Z,2.38
2023-04-16T06:25:22.104Z,2.33
2023-04-16T06:26:23.891Z,2.03
2023-04-16T06:27:26.078Z,1.95
2023-04-16T06:28:27.781Z,2.58
2023-04-16T06:29:40.690Z,2.40
2023-04-16T06:30:44.639Z,2.40
2023-04-16T06:31:46.756Z,2.38
2023-04-16T06:32:49.255Z,2.17
2023-04-16T06:33:50.986Z,2.17
2023-04-16T06:34:52.696Z,2.13
2023-04-16T06:35:54.395Z,2.30
2023-04-16T06:36:56.087Z,2.25
2023-04-16T06:37:57.861Z,2.35
2023-04-16T06:38:59.523Z,2.30
2023-04-16T06:40:01.506Z,2.58
2023-04-16T06:41:03.891Z,2.10
2023-04-16T06:42:05.637Z,2.35
2023-04-16T06:43:07.395Z,2.47
2023-04-16T06:44:09.125Z,2.72
2023-04-16T06:45:11.724Z,3.10
2023-04-16T06:46:13.510Z,2.70
2023-04-16T06:47:15.866Z,2.20
2023-04-16T06:48:17.747Z,2.28
2023-04-16T06:49:19.454Z,2.88
2023-04-16T06:50:22.377Z,2.55
2023-04-16T06:51:24.094Z,2.70
2023-04-16T06:52:25.912Z,3.15
2023-04-16T06:53:27.625Z,2.78
2023-04-16T06:54:29.348Z,2.55
2023-04-16T06:55:33.010Z,2.78
2023-04-16T06:56:35.937Z,2.50
2023-04-16T06:57:37.850Z,2.33
2023-04-16T06:58:39.545Z,2.63
2023-04-16T06:59:41.292Z,2.83
2023-04-16T07:00:43.106Z,2.20
2023-04-16T07:01:45.163Z,2.72
2023-04-16T07:02:47.104Z,2.25
2023-04-16T07:03:51.877Z,2.53
2023-04-16T07:04:53.814Z,2.50
2023-04-16T07:05:55.681Z,2.58
2023-04-16T07:06:57.410Z,2.28
2023-04-16T07:07:59.535Z,2.17
2023-04-16T07:09:01.317Z,2.30
2023-04-16T07:10:03.085Z,2.22
2023-04-16T07:11:05.222Z,2.78
2023-04-16T07:12:07.409Z,2.45
2023-04-16T07:13:09.132Z,2.72
2023-04-16T07:14:11.029Z,2.70
2023-04-16T07:15:12.795Z,2.50
2023-04-16T07:16:14.700Z,2.40
2023-04-16T07:17:16.502Z,2.83
2023-04-16T07:18:19.289Z,2.47
2023-04-16T07:19:22.335Z,2.70
2023-04-16T07:20:24.209Z,2.65
2023-04-16T07:21:26.322Z,2.50
2023-04-16T07:22:28.038Z,2.40
2023-04-16T07:23:30.118Z,2.40
2023-04-16T07:24:32.451Z,2.38
2023-04-16T07:25:34.167Z,2.25
2023-04-16T07:26:35.986Z,2.70
2023-04-16T07:27:37.679Z,2.40
2023-04-16T07:28:39.505Z,2.17
2023-04-16T07:29:41.331Z,2.33
2023-04-16T07:30:43.606Z,2.38
2023-04-16T07:31:45.951Z,2.50
2023-04-16T07:32:47.765Z,2.22
2023-04-16T07:33:49.554Z,2.70
2023-04-16T07:34:51.614Z,2.20
2023-04-16T07:35:53.384Z,2.30
2023-04-16T07:36:55.127Z,2.88
2023-04-16T07:37:56.826Z,2.60
2023-04-16T07:38:58.581Z,2.53
2023-04-16T07:40:00.918Z,2.63
2023-04-16T07:41:02.703Z,2.35
2023-04-16T07:42:04.494Z,2.35
2023-04-16T07:43:06.213Z,2.17
2023-04-16T07:44:08.257Z,2.72
2023-04-16T07:45:10.353Z,2.40
2023-04-16T07:46:12.045Z,2.30
2023-04-16T07:47:13.822Z,2.63
2023-04-16T07:48:15.611Z,2.38
2023-04-16T07:49:17.406Z,2.90
2023-04-16T07:50:19.643Z,2.60
2023-04-16T07:51:21.369Z,2.58
2023-04-16T07:52:23.090Z,2.58
2023-04-16T07:53:24.795Z,2.70
2023-04-16T07:54:28.869Z,2.50
2023-04-16T07:55:30.823Z,2.33
2023-04-16T07:56:32.605Z,2.20
2023-04-16T07:57:34.475Z,2.58
2023-04-16T07:58:36.212Z,2.58
2023-04-16T07:59:37.908Z,2.35
2023-04-16T08:00:39.968Z,2.30
2023-04-16T08:01:41.835Z,1.80
2023-04-16T08:02:43.997Z,2.63
2023-04-16T08:03:46.094Z,2.60
2023-04-16T08:04:48.134Z,2.38
2023-04-16T08:05:49.938Z,2.67
2023-04-16T08:06:52.067Z,2.20
2023-04-16T08:07:53.812Z,2.10
2023-04-16T08:08:56.243Z,2.03
2023-04-16T08:09:57.993Z,1.98
2023-04-16T08:11:00.220Z,1.92
2023-04-16T08:12:02.836Z,2.60
2023-04-16T08:13:04.596Z,2.10
2023-04-16T08:14:06.376Z,2.10
2023-04-16T08:15:08.438Z,2.10
2023-04-16T08:16:10.336Z,2.15
2023-04-16T08:17:12.973Z,2.10
2023-04-16T08:18:15.844Z,2.38
2023-04-16T08:19:17.668Z,3.25
2023-04-16T08:20:19.674Z,2.08
2023-04-16T08:21:22.059Z,2.90
2023-04-16T08:22:23.782Z,2.88
2023-04-16T08:23:25.492Z,3.10
2023-04-16T08:24:27.177Z,3.00
2023-04-16T08:25:28.931Z,3.55
2023-04-16T08:26:30.694Z,3.47
2023-04-16T08:27:32.382Z,3.25
2023-04-16T08:28:34.208Z,3.08
2023-04-16T08:29:35.951Z,3.13
2023-04-16T08:30:37.674Z,3.22
2023-04-16T08:31:39.525Z,3.33
2023-04-16T08:32:41.513Z,3.10
2023-04-16T08:33:43.451Z,2.90
2023-04-16T08:34:45.305Z,3.20
2023-04-16T08:35:47.160Z,3.50
2023-04-16T08:36:48.889Z,4.22
2023-04-16T08:37:50.644Z,4.25
2023-04-16T08:38:52.468Z,3.92
2023-04-16T08:39:54.268Z,4.70
2023-04-16T08:41:00.981Z,4.75
2023-04-16T08:42:05.763Z,5.05
2023-04-16T08:43:12.473Z,5.50
2023-04-16T08:44:26.429Z,5.30
2023-04-16T08:45:28.471Z,4.88
2023-04-16T08:46:31.680Z,4.80
2023-04-16T08:47:37.087Z,5.30
2023-04-16T08:48:38.930Z,5.35
2023-04-16T08:49:47.920Z,6.15
2023-04-16T08:50:52.946Z,5.70
2023-04-16T08:51:57.419Z,5.65
2023-04-16T08:53:03.959Z,4.72
2023-04-16T08:54:09.544Z,5.40
2023-04-16T08:55:16.996Z,4.57
2023-04-16T08:56:21.611Z,5.15
2023-04-16T08:57:27.281Z,3.80
2023-04-16T08:58:34.800Z,4.10
2023-04-16T08:59:37.415Z,4.13
2023-04-16T09:00:41.337Z,4.65
2023-04-16T09:01:45.752Z,4.13
2023-04-16T09:02:47.828Z,2.90
2023-04-16T09:03:50.093Z,3.47
2023-04-16T09:04:53.889Z,2.90
2023-04-16T09:05:59.309Z,3.00
2023-04-16T09:07:03.954Z,3.47
2023-04-16T09:08:07.057Z,3.13
2023-04-16T09:09:09.531Z,3.17
2023-04-16T09:10:12.320Z,2.78
2023-04-16T09:11:14.617Z,2.95
2023-04-16T09:12:17.504Z,2.70
2023-04-16T09:13:20.731Z,3.08
2023-04-16T09:14:22.634Z,2.42
2023-04-16T09:15:28.148Z,2.00
2023-04-16T09:16:34.219Z,2.22
2023-04-16T09:17:36.308Z,2.55
2023-04-16T09:18:38.105Z,2.83
2023-04-16T09:19:39.803Z,2.90
2023-04-16T09:20:41.510Z,2.40
2023-04-16T09:21:47.018Z,4.65
2023-04-16T09:22:48.998Z,2.13
2023-04-16T09:23:53.028Z,2.55
2023-04-16T09:24:54.714Z,2.53
2023-04-16T09:25:59.401Z,2.65
2023-04-16T09:27:01.302Z,2.45
2023-04-16T09:28:03.361Z,1.65
2023-04-16T09:29:05.143Z,2.25
2023-04-16T09:30:27.716Z,3.00
2023-04-16T09:31:29.681Z,2.63
2023-04-16T09:32:31.463Z,2.70
2023-04-16T09:33:34.997Z,2.53
2023-04-16T09:34:59.182Z,2.35
2023-04-16T09:36:06.186Z,1.98
2023-04-16T09:37:17.940Z,2.15
2023-04-16T09:38:20.544Z,2.67
2023-04-16T09:39:23.400Z,2.20
2023-04-16T09:40:27.504Z,2.05
2023-04-16T09:41:36.200Z,1.95
2023-04-16T09:42:38.087Z,2.38
2023-04-16T09:43:39.801Z,2.30
2023-04-16T09:44:41.488Z,2.40
2023-04-16T09:45:51.188Z,2.65
2023-04-16T09:46:53.019Z,2.60
2023-04-16T09:48:03.999Z,2.80
2023-04-16T09:49:10.651Z,2.67
2023-04-16T09:50:18.896Z,2.45
2023-04-16T09:51:20.940Z,2.30
2023-04-16T09:52:23.638Z,2.45
2023-04-16T09:53:29.604Z,2.53
2023-04-16T09:54:31.355Z,2.45
2023-04-16T09:55:33.274Z,2.35
2023-04-16T09:56:43.674Z,2.22
2023-04-16T09:57:45.521Z,2.50
2023-04-16T09:58:47.380Z,2.30
2023-04-16T09:59:53.480Z,2.35
2023-04-16T10:01:11.290Z,2.35
2023-04-16T10:02:15.319Z,2.55
2023-04-16T10:03:25.636Z,2.55
2023-04-16T10:04:28.493Z,2.33
2023-04-16T10:05:30.203Z,2.35
2023-04-16T10:06:31.947Z,2.30
2023-04-16T10:07:35.632Z,2.35
2023-04-16T10:08:37.347Z,2.35
2023-04-16T10:09:42.410Z,2.17
2023-04-16T10:10:45.128Z,2.30
2023-04-16T10:11:47.406Z,2.30
2023-04-16T10:12:49.118Z,2.28
2023-04-16T10:13:51.581Z,2.30
2023-04-16T10:14:53.474Z,2.40
2023-04-16T10:15:57.045Z,2.47
2023-04-16T10:16:59.658Z,2.33
2023-04-16T10:18:02.437Z,2.40
2023-04-16T10:19:04.921Z,2.05
2023-04-16T10:20:07.893Z,2.53
2023-04-16T10:21:12.809Z,2.50
2023-04-16T10:22:14.661Z,2.50
2023-04-16T10:23:16.457Z,2.22
2023-04-16T10:24:18.407Z,2.67
2023-04-16T10:25:20.496Z,2.10
2023-04-16T10:26:22.555Z,2.60
2023-04-16T10:27:27.119Z,2.30
2023-04-16T10:28:29.584Z,2.65
2023-04-16T10:29:32.409Z,2.65
2023-04-16T10:30:34.528Z,2.35
2023-04-16T10:31:38.809Z,2.72
2023-04-16T10:32:41.625Z,2.53
2023-04-16T10:33:44.547Z,2.20
2023-04-16T10:34:48.068Z,2.75
2023-04-16T10:36:07.263Z,2.80
2023-04-16T10:37:09.771Z,2.80
2023-04-16T10:38:28.491Z,2.63
2023-04-16T10:39:30.430Z,2.50
2023-04-16T10:40:32.186Z,2.70
2023-04-16T10:41:33.993Z,3.00
2023-04-16T10:42:35.770Z,3.05
2023-04-16T10:43:41.681Z,2.78
2023-04-16T10:44:45.389Z,2.78
2023-04-16T10:45:48.284Z,2.75
2023-04-16T10:46:50.106Z,2.83
2023-04-16T10:47:51.974Z,3.22
2023-04-16T10:48:55.181Z,3.70
2023-04-16T10:49:58.379Z,3.15
2023-04-16T10:51:01.145Z,2.95
2023-04-16T10:52:17.384Z,2.47
2023-04-16T10:53:20.356Z,2.75
2023-04-16T10:54:28.006Z,2.70
2023-04-16T10:55:29.708Z,2.60
2023-04-16T10:56:36.145Z,2.70
2023-04-16T10:57:37.883Z,2.67
2023-04-16T10:58:39.664Z,2.78
2023-04-16T10:59:43.671Z,3.33
2023-04-16T11:00:52.341Z,3.25
2023-04-16T11:01:56.628Z,2.80
2023-04-16T11:02:58.697Z,2.50
2023-04-16T11:04:02.413Z,2.40
2023-04-16T11:05:04.751Z,2.50
2023-04-16T11:06:17.685Z,2.63
2023-04-16T11:07:21.050Z,2.72
2023-04-16T11:08:24.236Z,2.40
2023-04-16T11:09:59.753Z,2.92
2023-04-16T11:11:04.953Z,2.70
2023-04-16T11:12:09.761Z,2.75
2023-04-16T11:13:13.112Z,2.55
2023-04-16T11:14:15.530Z,2.72
2023-04-16T11:15:21.497Z,3.45
2023-04-16T11:16:25.878Z,2.83
2023-04-16T11:17:53.730Z,2.75
2023-04-16T11:19:07.533Z,2.90
2023-04-16T11:20:22.242Z,1.90
2023-04-16T11:21:24.671Z,2.30
2023-04-16T11:22:27.374Z,2.05
2023-04-16T11:23:29.185Z,2.05
2023-04-16T11:24:33.957Z,2.20
2023-04-16T11:25:35.671Z,2.42
2023-04-16T11:26:37.384Z,2.42
2023-04-16T11:27:39.139Z,2.60
2023-04-16T11:28:40.923Z,3.05
2023-04-16T11:29:44.588Z,2.50
2023-04-16T11:30:47.540Z,2.65
2023-04-16T11:31:53.777Z,2.72
2023-04-16T11:32:55.839Z,2.47
2023-04-16T11:33:57.922Z,2.40
2023-04-16T11:35:03.883Z,3.08
2023-04-16T11:36:06.208Z,2.90
2023-04-16T11:37:07.986Z,3.28
2023-04-16T11:38:09.702Z,2.90
2023-04-16T11:39:11.791Z,2.35
2023-04-16T11:40:14.072Z,2.45
2023-04-16T11:41:22.062Z,2.60
2023-04-16T11:42:23.997Z,2.50
2023-04-16T11:43:26.776Z,2.42
2023-04-16T11:44:29.396Z,2.25
2023-04-16T11:45:31.307Z,2.53
2023-04-16T11:46:42.806Z,2.33
2023-04-16T11:47:56.915Z,2.70
2023-04-16T11:48:58.766Z,2.40
2023-04-16T11:50:33.514Z,2.33
2023-04-16T11:51:40.640Z,2.63
2023-04-16T11:52:42.371Z,2.90
2023-04-16T11:53:53.203Z,2.42
2023-04-16T11:54:55.469Z,2.75
2023-04-16T11:55:57.356Z,2.30
2023-04-16T11:56:59.152Z,2.45
2023-04-16T11:58:13.024Z,2.60
2023-04-16T11:59:19.096Z,2.63
2023-04-16T12:00:23.080Z,2.58
2023-04-16T12:01:26.773Z,2.83
2023-04-16T12:02:38.740Z,2.38
2023-04-16T12:03:47.155Z,2.83
2023-04-16T12:04:49.166Z,2.30
2023-04-16T12:05:50.948Z,2.33
2023-04-16T12:07:14.572Z,1.98
2023-04-16T12:08:29.181Z,3.33
2023-04-16T12:09:30.928Z,2.70
2023-04-16T12:10:37.934Z,3.45
2023-04-16T12:11:43.069Z,3.33
2023-04-16T12:12:47.915Z,3.05
2023-04-16T12:14:11.944Z,2.70
2023-04-16T12:15:13.771Z,2.92
2023-04-16T12:16:21.487Z,2.58
2023-04-16T12:17:24.550Z,2.60
2023-04-16T12:18:29.630Z,2.50
2023-04-16T12:19:31.382Z,2.35
2023-04-16T12:20:43.838Z,2.70
2023-04-16T12:21:48.226Z,2.15
2023-04-16T12:22:50.025Z,1.80
2023-04-16T12:23:53.971Z,2.15
2023-04-16T12:24:58.494Z,2.20
2023-04-16T12:26:10.741Z,2.08
2023-04-16T12:27:13.100Z,2.45
2023-04-16T12:28:16.597Z,2.20
2023-04-16T12:29:22.879Z,2.13
2023-04-16T12:30:31.070Z,2.22
2023-04-16T12:31:39.195Z,2.17
2023-04-16T12:32:42.554Z,2.40
2023-04-16T12:33:44.292Z,2.70
2023-04-16T12:34:52.100Z,2.10
2023-04-16T12:35:54.176Z,2.45
2023-04-16T12:37:10.692Z,2.35
2023-04-16T12:38:15.168Z,2.08
2023-04-16T12:39:17.333Z,2.20
2023-04-16T12:40:19.023Z,1.83
2023-04-16T12:41:20.726Z,2.20
2023-04-16T12:42:22.576Z,2.33
2023-04-16T12:43:24.516Z,2.33
2023-04-16T12:44:27.965Z,1.98
2023-04-16T12:45:29.781Z,1.05
2023-04-16T12:46:31.525Z,1.60
2023-04-16T12:47:33.427Z,1.30
2023-04-16T12:48:35.262Z,1.10
2023-04-16T12:49:37.605Z,1.00
2023-04-16T12:50:39.896Z,0.95
2023-04-16T12:51:42.292Z,0.93
2023-04-16T12:52:44.150Z,0.95
2023-04-16T12:53:46.014Z,1.02
2023-04-16T12:54:47.746Z,1.08
2023-04-16T12:55:49.521Z,1.40
2023-04-16T12:56:51.238Z,1.40
2023-04-16T12:57:53.229Z,1.40
2023-04-16T12:58:55.118Z,1.60
2023-04-16T12:59:57.771Z,1.20
2023-04-16T13:01:00.022Z,1.30
2023-04-16T13:02:02.949Z,1.48
2023-04-16T13:03:06.952Z,1.40
2023-04-16T13:04:09.477Z,1.10
2023-04-16T13:05:13.200Z,1.02
2023-04-16T13:06:16.186Z,1.33
2023-04-16T13:07:18.642Z,1.00
2023-04-16T13:08:20.789Z,1.40
2023-04-16T13:09:22.555Z,1.50
2023-04-16T13:10:24.466Z,1.90
2023-04-16T13:11:29.204Z,1.67
2023-04-16T13:12:32.766Z,1.52
2023-04-16T13:13:37.078Z,1.80
2023-04-16T13:14:39.463Z,1.98
2023-04-16T13:15:42.409Z,2.17
2023-04-16T13:16:44.142Z,1.70
2023-04-16T13:17:46.284Z,1.65
2023-04-16T13:18:48.104Z,1.80
2023-04-16T13:19:49.871Z,1.35
2023-04-16T13:20:52.100Z,1.58
2023-04-16T13:21:54.152Z,1.38
2023-04-16T13:22:55.992Z,1.55
2023-04-16T13:23:57.760Z,1.95
2023-04-16T13:24:59.493Z,1.98
2023-04-16T13:26:02.587Z,1.58
2023-04-16T13:27:04.469Z,1.60
2023-04-16T13:28:06.640Z,1.60
2023-04-16T13:29:08.627Z,1.55
2023-04-16T13:30:11.205Z,1.73
2023-04-16T13:31:13.015Z,1.80
2023-04-16T13:32:19.004Z,1.70
2023-04-16T13:33:21.504Z,1.73
2023-04-16T13:34:23.231Z,1.83
2023-04-16T13:35:25.064Z,2.00
2023-04-16T13:36:27.786Z,2.08
2023-04-16T13:37:29.619Z,2.00
2023-04-16T13:38:31.308Z,2.00
2023-04-16T13:39:33.889Z,2.20
2023-04-16T13:40:37.732Z,2.45
2023-04-16T13:41:39.792Z,2.10
2023-04-16T13:42:41.530Z,2.20
2023-04-16T13:43:43.425Z,1.85
2023-04-16T13:44:48.928Z,1.83
2023-04-16T13:45:50.780Z,1.90
2023-04-16T13:46:52.960Z,2.15
2023-04-16T13:47:56.201Z,2.90
2023-04-16T13:49:01.401Z,2.10
2023-04-16T13:50:03.214Z,2.20
2023-04-16T13:51:04.993Z,2.15
2023-04-16T13:52:06.693Z,2.00
2023-04-16T13:53:11.050Z,1.67
2023-04-16T13:54:13.557Z,2.13
2023-04-16T13:55:21.447Z,2.55
2023-04-16T13:56:23.380Z,1.95
2023-04-16T13:57:25.468Z,2.00
2023-04-16T13:58:27.156Z,2.08